sensor_id;sensor_type;location;lat;lon;timestamp;P1;durP1;ratioP1;P2;durP2;ratioP2
359;SDS011;168;48.872;9.226;2023-05-16T00:01:48;19.10;;;17.33;;
359;SDS011;168;48.872;9.226;2023-05-16T00:04:16;17.33;;;15.70;;
359;SDS011;168;48.872;9.226;2023-05-16T00:06:44;18.60;;;16.80;;
359;SDS011;168;48.872;9.226;2023-05-16T00:09:12;18.43;;;16.73;;
359;SDS011;168;48.872;9.226;2023-05-16T00:11:40;19.57;;;17.67;;
359;SDS011;168;48.872;9.226;2023-05-16T00:14:08;19.73;;;17.83;;
359;SDS011;168;48.872;9.226;2023-05-16T00:16:36;19.67;;;17.77;;
359;SDS011;168;48.872;9.226;2023-05-16T00:19:03;19.07;;;17.27;;
359;SDS011;168;48.872;9.226;2023-05-16T00:21:31;20.50;;;18.37;;
359;SDS011;168;48.872;9.226;2023-05-16T00:23:58;21.83;;;19.33;;
359;SDS011;168;48.872;9.226;2023-05-16T00:26:25;20.67;;;18.77;;
359;SDS011;168;48.872;9.226;2023-05-16T00:28:54;19.87;;;17.97;;
359;SDS011;168;48.872;9.226;2023-05-16T00:31:21;21.73;;;19.83;;
359;SDS011;168;48.872;9.226;2023-05-16T00:33:49;21.23;;;19.27;;
359;SDS011;168;48.872;9.226;2023-05-16T00:36:16;22.00;;;19.80;;
359;SDS011;168;48.872;9.226;2023-05-16T00:38:43;20.33;;;18.30;;
359;SDS011;168;48.872;9.226;2023-05-16T00:41:11;23.87;;;20.30;;
359;SDS011;168;48.872;9.226;2023-05-16T00:43:38;21.33;;;19.13;;
359;SDS011;168;48.872;9.226;2023-05-16T00:46:07;21.20;;;19.10;;
359;SDS011;168;48.872;9.226;2023-05-16T00:48:34;20.80;;;18.80;;
359;SDS011;168;48.872;9.226;2023-05-16T00:51:02;22.10;;;19.90;;
359;SDS011;168;48.872;9.226;2023-05-16T00:53:33;23.40;;;21.17;;
359;SDS011;168;48.872;9.226;2023-05-16T00:56:01;24.50;;;22.00;;
359;SDS011;168;48.872;9.226;2023-05-16T00:58:29;24.73;;;22.27;;
359;SDS011;168;48.872;9.226;2023-05-16T01:00:58;24.10;;;21.60;;
359;SDS011;168;48.872;9.226;2023-05-16T01:03:29;24.20;;;21.80;;
359;SDS011;168;48.872;9.226;2023-05-16T01:05:57;24.17;;;21.67;;
359;SDS011;168;48.872;9.226;2023-05-16T01:08:24;22.83;;;20.10;;
359;SDS011;168;48.872;9.226;2023-05-16T01:10:54;22.30;;;20.20;;
359;SDS011;168;48.872;9.226;2023-05-16T01:13:27;22.43;;;20.20;;
359;SDS011;168;48.872;9.226;2023-05-16T01:16:03;21.30;;;19.10;;
359;SDS011;168;48.872;9.226;2023-05-16T01:18:39;21.03;;;18.80;;
359;SDS011;168;48.872;9.226;2023-05-16T01:21:11;21.60;;;19.50;;
359;SDS011;168;48.872;9.226;2023-05-16T01:23:46;22.90;;;20.80;;
359;SDS011;168;48.872;9.226;2023-05-16T01:26:21;26.40;;;23.70;;
359;SDS011;168;48.872;9.226;2023-05-16T01:28:50;25.67;;;23.03;;
359;SDS011;168;48.872;9.226;2023-05-16T01:31:18;27.87;;;25.03;;
359;SDS011;168;48.872;9.226;2023-05-16T01:33:46;28.10;;;25.27;;
359;SDS011;168;48.872;9.226;2023-05-16T01:36:16;25.00;;;22.33;;
359;SDS011;168;48.872;9.226;2023-05-16T01:38:54;29.67;;;24.33;;
359;SDS011;168;48.872;9.226;2023-05-16T01:41:29;26.70;;;24.00;;
359;SDS011;168;48.872;9.226;2023-05-16T01:44:10;28.50;;;25.47;;
359;SDS011;168;48.872;9.226;2023-05-16T01:46:44;28.03;;;25.20;;
359;SDS011;168;48.872;9.226;2023-05-16T01:49:15;28.30;;;25.33;;
359;SDS011;168;48.872;9.226;2023-05-16T01:51:48;29.10;;;26.20;;
359;SDS011;168;48.872;9.226;2023-05-16T01:54:18;31.00;;;26.87;;
359;SDS011;168;48.872;9.226;2023-05-16T01:56:50;31.57;;;28.27;;
359;SDS011;168;48.872;9.226;2023-05-16T01:59:19;31.00;;;27.70;;
359;SDS011;168;48.872;9.226;2023-05-16T02:01:47;30.43;;;27.03;;
359;SDS011;168;48.872;9.226;2023-05-16T02:04:15;32.37;;;29.00;;
359;SDS011;168;48.872;9.226;2023-05-16T02:06:42;37.10;;;30.90;;
359;SDS011;168;48.872;9.226;2023-05-16T02:09:10;34.57;;;30.87;;
359;SDS011;168;48.872;9.226;2023-05-16T02:11:38;36.90;;;32.50;;
359;SDS011;168;48.872;9.226;2023-05-16T02:14:06;34.13;;;30.30;;
359;SDS011;168;48.872;9.226;2023-05-16T02:16:34;34.73;;;30.97;;
359;SDS011;168;48.872;9.226;2023-05-16T02:19:02;38.93;;;32.53;;
359;SDS011;168;48.872;9.226;2023-05-16T02:21:29;37.73;;;33.63;;
359;SDS011;168;48.872;9.226;2023-05-16T02:23:56;36.50;;;32.20;;
359;SDS011;168;48.872;9.226;2023-05-16T02:26:24;39.63;;;33.00;;
359;SDS011;168;48.872;9.226;2023-05-16T02:28:51;43.23;;;35.83;;
359;SDS011;168;48.872;9.226;2023-05-16T02:31:26;41.17;;;35.80;;
359;SDS011;168;48.872;9.226;2023-05-16T02:33:55;42.97;;;36.33;;
359;SDS011;168;48.872;9.226;2023-05-16T02:36:22;41.67;;;34.87;;
359;SDS011;168;48.872;9.226;2023-05-16T02:38:50;43.57;;;35.70;;
359;SDS011;168;48.872;9.226;2023-05-16T02:41:17;44.13;;;35.87;;
359;SDS011;168;48.872;9.226;2023-05-16T02:43:46;44.97;;;36.90;;
359;SDS011;168;48.872;9.226;2023-05-16T02:46:23;45.73;;;36.30;;
359;SDS011;168;48.872;9.226;2023-05-16T02:48:54;46.23;;;37.60;;
359;SDS011;168;48.872;9.226;2023-05-16T02:51:22;43.83;;;38.20;;
359;SDS011;168;48.872;9.226;2023-05-16T02:53:51;51.80;;;37.63;;
359;SDS011;168;48.872;9.226;2023-05-16T02:56:21;44.03;;;36.27;;
359;SDS011;168;48.872;9.226;2023-05-16T02:58:49;46.00;;;37.87;;
359;SDS011;168;48.872;9.226;2023-05-16T03:01:16;46.50;;;38.07;;
359;SDS011;168;48.872;9.226;2023-05-16T03:03:43;40.77;;;33.67;;
359;SDS011;168;48.872;9.226;2023-05-16T03:06:12;30.43;;;27.23;;
359;SDS011;168;48.872;9.226;2023-05-16T03:08:39;27.93;;;24.27;;
359;SDS011;168;48.872;9.226;2023-05-16T03:11:07;27.10;;;24.30;;
359;SDS011;168;48.872;9.226;2023-05-16T03:13:34;35.60;;;31.70;;
359;SDS011;168;48.872;9.226;2023-05-16T03:16:01;45.30;;;35.20;;
359;SDS011;168;48.872;9.226;2023-05-16T03:18:29;40.00;;;32.70;;
359;SDS011;168;48.872;9.226;2023-05-16T03:20:56;37.47;;;32.50;;
359;SDS011;168;48.872;9.226;2023-05-16T03:23:25;44.07;;;35.83;;
359;SDS011;168;48.872;9.226;2023-05-16T03:25:53;45.73;;;36.37;;
359;SDS011;168;48.872;9.226;2023-05-16T03:28:20;47.37;;;36.50;;
359;SDS011;168;48.872;9.226;2023-05-16T03:30:48;46.93;;;35.60;;
359;SDS011;168;48.872;9.226;2023-05-16T03:33:15;46.53;;;37.30;;
359;SDS011;168;48.872;9.226;2023-05-16T03:35:43;55.60;;;38.70;;
359;SDS011;168;48.872;9.226;2023-05-16T03:38:11;51.63;;;40.70;;
359;SDS011;168;48.872;9.226;2023-05-16T03:40:40;54.43;;;40.87;;
359;SDS011;168;48.872;9.226;2023-05-16T03:43:07;51.60;;;39.70;;
359;SDS011;168;48.872;9.226;2023-05-16T03:45:35;53.10;;;39.57;;
359;SDS011;168;48.872;9.226;2023-05-16T03:48:02;57.77;;;41.27;;
359;SDS011;168;48.872;9.226;2023-05-16T03:50:30;56.97;;;42.00;;
359;SDS011;168;48.872;9.226;2023-05-16T03:52:57;58.10;;;42.00;;
359;SDS011;168;48.872;9.226;2023-05-16T03:55:24;57.50;;;41.13;;
359;SDS011;168;48.872;9.226;2023-05-16T03:57:53;63.63;;;44.67;;
359;SDS011;168;48.872;9.226;2023-05-16T04:00:21;57.30;;;43.40;;
359;SDS011;168;48.872;9.226;2023-05-16T04:02:49;61.53;;;41.40;;
359;SDS011;168;48.872;9.226;2023-05-16T04:05:18;55.37;;;41.10;;
359;SDS011;168;48.872;9.226;2023-05-16T04:07:45;56.43;;;42.90;;
359;SDS011;168;48.872;9.226;2023-05-16T04:10:13;54.17;;;38.80;;
359;SDS011;168;48.872;9.226;2023-05-16T04:12:40;51.80;;;40.23;;
359;SDS011;168;48.872;9.226;2023-05-16T04:15:10;52.63;;;38.50;;
359;SDS011;168;48.872;9.226;2023-05-16T04:17:37;52.33;;;39.47;;
359;SDS011;168;48.872;9.226;2023-05-16T04:20:05;56.70;;;39.50;;
359;SDS011;168;48.872;9.226;2023-05-16T04:22:33;48.43;;;37.70;;
359;SDS011;168;48.872;9.226;2023-05-16T04:25:01;54.67;;;39.47;;
359;SDS011;168;48.872;9.226;2023-05-16T04:27:28;47.27;;;37.50;;
359;SDS011;168;48.872;9.226;2023-05-16T04:29:56;52.10;;;39.60;;
359;SDS011;168;48.872;9.226;2023-05-16T04:32:25;51.17;;;38.97;;
359;SDS011;168;48.872;9.226;2023-05-16T04:34:53;51.77;;;39.10;;
359;SDS011;168;48.872;9.226;2023-05-16T04:37:20;49.53;;;38.60;;
359;SDS011;168;48.872;9.226;2023-05-16T04:39:48;51.53;;;39.60;;
359;SDS011;168;48.872;9.226;2023-05-16T04:42:16;51.30;;;37.83;;
359;SDS011;168;48.872;9.226;2023-05-16T04:44:43;50.20;;;37.20;;
359;SDS011;168;48.872;9.226;2023-05-16T04:47:12;52.93;;;38.57;;
359;SDS011;168;48.872;9.226;2023-05-16T04:49:41;47.37;;;37.90;;
359;SDS011;168;48.872;9.226;2023-05-16T04:52:08;47.03;;;36.20;;
359;SDS011;168;48.872;9.226;2023-05-16T04:54:36;44.13;;;34.40;;
359;SDS011;168;48.872;9.226;2023-05-16T04:57:04;50.13;;;36.37;;
359;SDS011;168;48.872;9.226;2023-05-16T04:59:31;43.67;;;34.47;;
359;SDS011;168;48.872;9.226;2023-05-16T05:01:59;42.13;;;33.03;;
359;SDS011;168;48.872;9.226;2023-05-16T05:04:26;41.90;;;32.43;;
359;SDS011;168;48.872;9.226;2023-05-16T05:06:55;41.20;;;32.40;;
359;SDS011;168;48.872;9.226;2023-05-16T05:09:22;43.67;;;34.93;;
359;SDS011;168;48.872;9.226;2023-05-16T05:11:50;39.77;;;31.30;;
359;SDS011;168;48.872;9.226;2023-05-16T05:14:17;46.00;;;32.67;;
359;SDS011;168;48.872;9.226;2023-05-16T05:16:45;40.53;;;34.23;;
359;SDS011;168;48.872;9.226;2023-05-16T05:19:12;43.93;;;33.97;;
359;SDS011;168;48.872;9.226;2023-05-16T05:21:39;45.77;;;33.00;;
359;SDS011;168;48.872;9.226;2023-05-16T05:24:08;47.20;;;33.10;;
359;SDS011;168;48.872;9.226;2023-05-16T05:26:36;39.87;;;33.40;;
359;SDS011;168;48.872;9.226;2023-05-16T05:29:03;39.00;;;33.37;;
359;SDS011;168;48.872;9.226;2023-05-16T05:31:30;37.77;;;29.90;;
359;SDS011;168;48.872;9.226;2023-05-16T05:33:59;38.93;;;32.37;;
359;SDS011;168;48.872;9.226;2023-05-16T05:36:26;38.80;;;30.50;;
359;SDS011;168;48.872;9.226;2023-05-16T05:38:53;34.97;;;29.73;;
359;SDS011;168;48.872;9.226;2023-05-16T05:41:22;37.27;;;29.10;;
359;SDS011;168;48.872;9.226;2023-05-16T05:43:50;38.80;;;30.60;;
359;SDS011;168;48.872;9.226;2023-05-16T05:46:18;37.53;;;30.93;;
359;SDS011;168;48.872;9.226;2023-05-16T05:48:45;38.50;;;30.27;;
359;SDS011;168;48.872;9.226;2023-05-16T05:51:12;42.20;;;31.30;;
359;SDS011;168;48.872;9.226;2023-05-16T05:53:40;43.30;;;31.30;;
359;SDS011;168;48.872;9.226;2023-05-16T05:56:07;37.10;;;30.00;;
359;SDS011;168;48.872;9.226;2023-05-16T05:58:36;36.03;;;29.70;;
359;SDS011;168;48.872;9.226;2023-05-16T06:01:06;37.80;;;29.20;;
359;SDS011;168;48.872;9.226;2023-05-16T06:03:33;36.00;;;30.27;;
359;SDS011;168;48.872;9.226;2023-05-16T06:06:01;39.67;;;31.40;;
359;SDS011;168;48.872;9.226;2023-05-16T06:08:29;35.57;;;29.83;;
359;SDS011;168;48.872;9.226;2023-05-16T06:10:56;31.87;;;28.47;;
359;SDS011;168;48.872;9.226;2023-05-16T06:13:23;35.73;;;30.23;;
359;SDS011;168;48.872;9.226;2023-05-16T06:15:52;35.17;;;28.53;;
359;SDS011;168;48.872;9.226;2023-05-16T06:18:20;35.37;;;27.30;;
359;SDS011;168;48.872;9.226;2023-05-16T06:20:47;34.30;;;27.70;;
359;SDS011;168;48.872;9.226;2023-05-16T06:23:15;32.97;;;28.60;;
359;SDS011;168;48.872;9.226;2023-05-16T06:25:42;33.00;;;28.53;;
359;SDS011;168;48.872;9.226;2023-05-16T06:28:10;32.73;;;28.70;;
359;SDS011;168;48.872;9.226;2023-05-16T06:30:37;34.53;;;28.00;;
359;SDS011;168;48.872;9.226;2023-05-16T06:33:06;35.80;;;27.70;;
359;SDS011;168;48.872;9.226;2023-05-16T06:35:33;31.20;;;26.37;;
359;SDS011;168;48.872;9.226;2023-05-16T06:38:01;36.83;;;28.50;;
359;SDS011;168;48.872;9.226;2023-05-16T06:40:28;33.93;;;27.33;;
359;SDS011;168;48.872;9.226;2023-05-16T06:42:56;34.73;;;28.63;;
359;SDS011;168;48.872;9.226;2023-05-16T06:45:23;33.63;;;25.90;;
359;SDS011;168;48.872;9.226;2023-05-16T06:47:51;36.67;;;28.07;;
359;SDS011;168;48.872;9.226;2023-05-16T06:50:19;33.10;;;27.40;;
359;SDS011;168;48.872;9.226;2023-05-16T06:52:47;32.17;;;27.00;;
359;SDS011;168;48.872;9.226;2023-05-16T06:55:14;32.60;;;27.60;;
359;SDS011;168;48.872;9.226;2023-05-16T06:57:42;33.13;;;26.43;;
359;SDS011;168;48.872;9.226;2023-05-16T07:00:10;31.03;;;26.57;;
359;SDS011;168;48.872;9.226;2023-05-16T07:02:37;31.87;;;27.00;;
359;SDS011;168;48.872;9.226;2023-05-16T07:05:05;32.07;;;26.63;;
359;SDS011;168;48.872;9.226;2023-05-16T07:07:34;28.73;;;25.13;;
359;SDS011;168;48.872;9.226;2023-05-16T07:10:02;26.43;;;23.00;;
359;SDS011;168;48.872;9.226;2023-05-16T07:12:29;25.63;;;21.03;;
359;SDS011;168;48.872;9.226;2023-05-16T07:14:56;25.97;;;21.90;;
359;SDS011;168;48.872;9.226;2023-05-16T07:17:24;27.47;;;23.60;;
359;SDS011;168;48.872;9.226;2023-05-16T07:19:51;25.97;;;22.80;;
359;SDS011;168;48.872;9.226;2023-05-16T07:22:18;25.47;;;22.20;;
359;SDS011;168;48.872;9.226;2023-05-16T07:24:47;22.70;;;20.30;;
359;SDS011;168;48.872;9.226;2023-05-16T07:27:15;22.60;;;20.20;;
359;SDS011;168;48.872;9.226;2023-05-16T07:29:42;23.73;;;20.50;;
359;SDS011;168;48.872;9.226;2023-05-16T07:32:10;23.97;;;21.47;;
359;SDS011;168;48.872;9.226;2023-05-16T07:34:37;21.80;;;19.40;;
359;SDS011;168;48.872;9.226;2023-05-16T07:37:05;20.50;;;17.67;;
359;SDS011;168;48.872;9.226;2023-05-16T07:39:37;19.90;;;17.90;;
359;SDS011;168;48.872;9.226;2023-05-16T07:42:07;18.53;;;16.73;;
359;SDS011;168;48.872;9.226;2023-05-16T07:44:34;19.80;;;17.87;;
359;SDS011;168;48.872;9.226;2023-05-16T07:47:02;20.80;;;18.00;;
359;SDS011;168;48.872;9.226;2023-05-16T07:49:29;20.67;;;18.43;;
359;SDS011;168;48.872;9.226;2023-05-16T07:51:56;19.03;;;17.03;;
359;SDS011;168;48.872;9.226;2023-05-16T07:54:24;19.60;;;17.60;;
359;SDS011;168;48.872;9.226;2023-05-16T07:56:51;19.43;;;17.40;;
359;SDS011;168;48.872;9.226;2023-05-16T07:59:20;20.40;;;17.87;;
359;SDS011;168;48.872;9.226;2023-05-16T08:01:48;18.77;;;16.77;;
359;SDS011;168;48.872;9.226;2023-05-16T08:04:15;18.80;;;16.47;;
359;SDS011;168;48.872;9.226;2023-05-16T08:06:43;17.87;;;15.97;;
359;SDS011;168;48.872;9.226;2023-05-16T08:09:10;20.20;;;17.20;;
359;SDS011;168;48.872;9.226;2023-05-16T08:11:37;19.67;;;17.67;;
359;SDS011;168;48.872;9.226;2023-05-16T08:14:05;19.70;;;17.60;;
359;SDS011;168;48.872;9.226;2023-05-16T08:16:34;19.03;;;17.03;;
359;SDS011;168;48.872;9.226;2023-05-16T08:19:01;18.43;;;16.63;;
359;SDS011;168;48.872;9.226;2023-05-16T08:21:28;20.30;;;18.27;;
359;SDS011;168;48.872;9.226;2023-05-16T08:23:56;19.90;;;17.87;;
359;SDS011;168;48.872;9.226;2023-05-16T08:26:24;19.57;;;16.17;;
359;SDS011;168;48.872;9.226;2023-05-16T08:28:51;17.93;;;16.10;;
359;SDS011;168;48.872;9.226;2023-05-16T08:31:19;20.57;;;18.43;;
359;SDS011;168;48.872;9.226;2023-05-16T08:33:47;19.90;;;17.80;;
359;SDS011;168;48.872;9.226;2023-05-16T08:36:15;21.70;;;19.40;;
359;SDS011;168;48.872;9.226;2023-05-16T08:38:44;21.93;;;18.90;;
359;SDS011;168;48.872;9.226;2023-05-16T08:41:11;24.30;;;21.70;;
359;SDS011;168;48.872;9.226;2023-05-16T08:43:39;22.07;;;18.80;;
359;SDS011;168;48.872;9.226;2023-05-16T08:46:06;21.77;;;19.40;;
359;SDS011;168;48.872;9.226;2023-05-16T08:48:35;21.87;;;19.30;;
359;SDS011;168;48.872;9.226;2023-05-16T08:51:04;23.53;;;19.10;;
359;SDS011;168;48.872;9.226;2023-05-16T08:53:36;24.70;;;21.27;;
359;SDS011;168;48.872;9.226;2023-05-16T08:56:08;23.17;;;20.17;;
359;SDS011;168;48.872;9.226;2023-05-16T08:58:38;26.30;;;21.70;;
359;SDS011;168;48.872;9.226;2023-05-16T09:01:06;26.27;;;22.43;;
359;SDS011;168;48.872;9.226;2023-05-16T09:03:35;25.83;;;21.20;;
359;SDS011;168;48.872;9.226;2023-05-16T09:06:05;25.47;;;20.87;;
359;SDS011;168;48.872;9.226;2023-05-16T09:08:32;25.07;;;22.23;;
359;SDS011;168;48.872;9.226;2023-05-16T09:11:00;25.80;;;22.93;;
359;SDS011;168;48.872;9.226;2023-05-16T09:13:28;25.10;;;22.33;;
359;SDS011;168;48.872;9.226;2023-05-16T09:16:07;27.07;;;22.00;;
359;SDS011;168;48.872;9.226;2023-05-16T09:18:36;27.03;;;21.63;;
359;SDS011;168;48.872;9.226;2023-05-16T09:21:06;25.37;;;22.60;;
359;SDS011;168;48.872;9.226;2023-05-16T09:23:33;26.93;;;21.97;;
359;SDS011;168;48.872;9.226;2023-05-16T09:26:01;25.13;;;22.20;;
359;SDS011;168;48.872;9.226;2023-05-16T09:28:29;25.83;;;23.00;;
359;SDS011;168;48.872;9.226;2023-05-16T09:30:56;26.30;;;22.80;;
359;SDS011;168;48.872;9.226;2023-05-16T09:33:26;28.17;;;23.00;;
359;SDS011;168;48.872;9.226;2023-05-16T09:35:54;29.07;;;22.77;;
359;SDS011;168;48.872;9.226;2023-05-16T09:38:24;28.10;;;23.10;;
359;SDS011;168;48.872;9.226;2023-05-16T09:40:53;27.67;;;22.03;;
359;SDS011;168;48.872;9.226;2023-05-16T09:43:22;26.93;;;22.87;;
359;SDS011;168;48.872;9.226;2023-05-16T09:45:51;28.83;;;22.63;;
359;SDS011;168;48.872;9.226;2023-05-16T09:48:20;25.20;;;21.13;;
359;SDS011;168;48.872;9.226;2023-05-16T09:50:50;25.00;;;21.67;;
359;SDS011;168;48.872;9.226;2023-05-16T09:53:27;26.63;;;21.80;;
359;SDS011;168;48.872;9.226;2023-05-16T09:55:58;29.40;;;24.33;;
359;SDS011;168;48.872;9.226;2023-05-16T09:58:27;25.33;;;21.80;;
359;SDS011;168;48.872;9.226;2023-05-16T10:00:56;28.07;;;23.80;;
359;SDS011;168;48.872;9.226;2023-05-16T10:03:24;28.50;;;24.50;;
359;SDS011;168;48.872;9.226;2023-05-16T10:05:52;24.57;;;20.93;;
359;SDS011;168;48.872;9.226;2023-05-16T10:08:20;26.63;;;21.50;;
359;SDS011;168;48.872;9.226;2023-05-16T10:10:51;27.30;;;22.30;;
359;SDS011;168;48.872;9.226;2023-05-16T10:13:20;24.17;;;19.27;;
359;SDS011;168;48.872;9.226;2023-05-16T10:15:48;27.70;;;21.90;;
359;SDS011;168;48.872;9.226;2023-05-16T10:18:16;24.37;;;21.77;;
359;SDS011;168;48.872;9.226;2023-05-16T10:20:48;23.67;;;19.90;;
359;SDS011;168;48.872;9.226;2023-05-16T10:23:19;24.50;;;21.17;;
359;SDS011;168;48.872;9.226;2023-05-16T10:25:47;23.97;;;20.43;;
359;SDS011;168;48.872;9.226;2023-05-16T10:28:16;22.23;;;19.87;;
359;SDS011;168;48.872;9.226;2023-05-16T10:30:44;24.93;;;19.90;;
359;SDS011;168;48.872;9.226;2023-05-16T10:33:12;27.03;;;21.13;;
359;SDS011;168;48.872;9.226;2023-05-16T10:35:40;24.13;;;21.00;;
359;SDS011;168;48.872;9.226;2023-05-16T10:38:11;24.37;;;18.10;;
359;SDS011;168;48.872;9.226;2023-05-16T10:40:42;27.17;;;21.20;;
359;SDS011;168;48.872;9.226;2023-05-16T10:43:10;27.33;;;19.47;;
359;SDS011;168;48.872;9.226;2023-05-16T10:45:54;20.33;;;16.77;;
359;SDS011;168;48.872;9.226;2023-05-16T10:48:29;22.07;;;16.30;;
359;SDS011;168;48.872;9.226;2023-05-16T10:50:57;23.63;;;19.37;;
359;SDS011;168;48.872;9.226;2023-05-16T10:53:31;23.50;;;18.70;;
359;SDS011;168;48.872;9.226;2023-05-16T10:56:06;20.23;;;16.40;;
359;SDS011;168;48.872;9.226;2023-05-16T10:58:40;21.60;;;18.27;;
359;SDS011;168;48.872;9.226;2023-05-16T11:01:19;24.83;;;19.10;;
359;SDS011;168;48.872;9.226;2023-05-16T11:04:04;21.57;;;18.40;;
359;SDS011;168;48.872;9.226;2023-05-16T11:06:33;20.97;;;16.20;;
359;SDS011;168;48.872;9.226;2023-05-16T11:09:04;20.80;;;14.70;;
359;SDS011;168;48.872;9.226;2023-05-16T11:11:45;21.13;;;15.40;;
359;SDS011;168;48.872;9.226;2023-05-16T11:14:21;20.40;;;14.50;;
359;SDS011;168;48.872;9.226;2023-05-16T11:16:49;20.00;;;15.37;;
359;SDS011;168;48.872;9.226;2023-05-16T11:19:30;21.57;;;15.07;;
359;SDS011;168;48.872;9.226;2023-05-16T11:22:12;17.10;;;13.70;;
359;SDS011;168;48.872;9.226;2023-05-16T11:24:48;17.23;;;13.37;;
359;SDS011;168;48.872;9.226;2023-05-16T11:27:21;18.63;;;14.03;;
359;SDS011;168;48.872;9.226;2023-05-16T11:29:51;16.03;;;13.90;;
359;SDS011;168;48.872;9.226;2023-05-16T11:32:22;20.17;;;16.10;;
359;SDS011;168;48.872;9.226;2023-05-16T11:34:49;16.70;;;14.10;;
359;SDS011;168;48.872;9.226;2023-05-16T11:37:19;17.57;;;14.20;;
359;SDS011;168;48.872;9.226;2023-05-16T11:39:47;16.07;;;13.40;;
359;SDS011;168;48.872;9.226;2023-05-16T11:42:14;17.33;;;13.57;;
359;SDS011;168;48.872;9.226;2023-05-16T11:44:42;13.33;;;11.90;;
359;SDS011;168;48.872;9.226;2023-05-16T11:47:11;14.77;;;11.70;;
359;SDS011;168;48.872;9.226;2023-05-16T11:49:39;15.20;;;12.83;;
359;SDS011;168;48.872;9.226;2023-05-16T11:52:07;17.40;;;14.13;;
359;SDS011;168;48.872;9.226;2023-05-16T11:54:35;14.13;;;11.93;;
359;SDS011;168;48.872;9.226;2023-05-16T11:57:04;15.07;;;13.20;;
359;SDS011;168;48.872;9.226;2023-05-16T11:59:31;11.70;;;10.20;;
359;SDS011;168;48.872;9.226;2023-05-16T12:02:02;13.70;;;11.27;;
359;SDS011;168;48.872;9.226;2023-05-16T12:04:32;13.97;;;11.20;;
359;SDS011;168;48.872;9.226;2023-05-16T12:07:00;12.93;;;10.80;;
359;SDS011;168;48.872;9.226;2023-05-16T12:09:28;10.00;;;9.00;;
359;SDS011;168;48.872;9.226;2023-05-16T12:11:56;14.70;;;8.57;;
359;SDS011;168;48.872;9.226;2023-05-16T12:14:23;10.10;;;8.50;;
359;SDS011;168;48.872;9.226;2023-05-16T12:16:51;7.97;;;7.17;;
359;SDS011;168;48.872;9.226;2023-05-16T12:19:19;7.90;;;7.10;;
359;SDS011;168;48.872;9.226;2023-05-16T12:21:52;8.97;;;7.97;;
359;SDS011;168;48.872;9.226;2023-05-16T12:24:19;8.57;;;7.67;;
359;SDS011;168;48.872;9.226;2023-05-16T12:26:47;8.07;;;7.30;;
359;SDS011;168;48.872;9.226;2023-05-16T12:29:14;8.03;;;7.30;;
359;SDS011;168;48.872;9.226;2023-05-16T12:31:42;8.50;;;7.40;;
359;SDS011;168;48.872;9.226;2023-05-16T12:34:15;8.23;;;7.17;;
359;SDS011;168;48.872;9.226;2023-05-16T12:36:43;9.80;;;7.67;;
359;SDS011;168;48.872;9.226;2023-05-16T12:39:12;6.93;;;6.23;;
359;SDS011;168;48.872;9.226;2023-05-16T12:41:40;6.70;;;6.10;;
359;SDS011;168;48.872;9.226;2023-05-16T12:44:11;6.57;;;6.07;;
359;SDS011;168;48.872;9.226;2023-05-16T12:46:45;6.70;;;6.10;;
359;SDS011;168;48.872;9.226;2023-05-16T12:49:14;7.00;;;6.30;;
359;SDS011;168;48.872;9.226;2023-05-16T12:51:48;5.77;;;5.27;;
359;SDS011;168;48.872;9.226;2023-05-16T12:54:18;6.10;;;5.60;;
359;SDS011;168;48.872;9.226;2023-05-16T12:56:47;7.13;;;6.33;;
359;SDS011;168;48.872;9.226;2023-05-16T12:59:14;5.60;;;5.10;;
359;SDS011;168;48.872;9.226;2023-05-16T13:01:43;6.10;;;5.60;;
359;SDS011;168;48.872;9.226;2023-05-16T13:04:10;5.80;;;5.30;;
359;SDS011;168;48.872;9.226;2023-05-16T13:06:40;6.63;;;6.10;;
359;SDS011;168;48.872;9.226;2023-05-16T13:09:08;6.37;;;5.87;;
359;SDS011;168;48.872;9.226;2023-05-16T13:11:37;5.30;;;4.90;;
359;SDS011;168;48.872;9.226;2023-05-16T13:14:04;5.87;;;5.37;;
359;SDS011;168;48.872;9.226;2023-05-16T13:16:32;5.87;;;5.37;;
359;SDS011;168;48.872;9.226;2023-05-16T13:18:59;5.70;;;5.30;;
359;SDS011;168;48.872;9.226;2023-05-16T13:21:27;5.90;;;5.40;;
359;SDS011;168;48.872;9.226;2023-05-16T13:23:56;6.20;;;5.77;;
359;SDS011;168;48.872;9.226;2023-05-16T13:26:23;5.00;;;4.57;;
359;SDS011;168;48.872;9.226;2023-05-16T13:28:52;5.37;;;4.97;;
359;SDS011;168;48.872;9.226;2023-05-16T13:31:20;5.13;;;4.80;;
359;SDS011;168;48.872;9.226;2023-05-16T13:33:47;7.40;;;6.80;;
359;SDS011;168;48.872;9.226;2023-05-16T13:36:15;6.00;;;5.60;;
359;SDS011;168;48.872;9.226;2023-05-16T13:38:42;6.00;;;5.60;;
359;SDS011;168;48.872;9.226;2023-05-16T13:41:10;6.47;;;5.97;;
359;SDS011;168;48.872;9.226;2023-05-16T13:43:37;6.30;;;5.90;;
359;SDS011;168;48.872;9.226;2023-05-16T13:46:06;6.13;;;5.60;;
359;SDS011;168;48.872;9.226;2023-05-16T13:48:33;5.40;;;5.00;;
359;SDS011;168;48.872;9.226;2023-05-16T13:51:00;6.53;;;6.13;;
359;SDS011;168;48.872;9.226;2023-05-16T13:53:28;5.40;;;5.00;;
359;SDS011;168;48.872;9.226;2023-05-16T13:55:55;7.00;;;6.50;;
359;SDS011;168;48.872;9.226;2023-05-16T13:58:22;7.93;;;5.47;;
359;SDS011;168;48.872;9.226;2023-05-16T14:00:50;8.20;;;5.70;;
359;SDS011;168;48.872;9.226;2023-05-16T14:03:19;6.10;;;5.60;;
359;SDS011;168;48.872;9.226;2023-05-16T14:21:24;5.30;;;4.60;;
359;SDS011;168;48.872;9.226;2023-05-16T14:23:52;5.20;;;4.70;;
359;SDS011;168;48.872;9.226;2023-05-16T14:26:19;4.30;;;3.90;;
359;SDS011;168;48.872;9.226;2023-05-16T14:28:49;4.93;;;4.37;;
359;SDS011;168;48.872;9.226;2023-05-16T14:31:17;5.60;;;5.07;;
359;SDS011;168;48.872;9.226;2023-05-16T14:33:45;4.33;;;3.97;;
359;SDS011;168;48.872;9.226;2023-05-16T14:36:13;8.23;;;4.50;;
359;SDS011;168;48.872;9.226;2023-05-16T14:38:42;5.13;;;4.63;;
359;SDS011;168;48.872;9.226;2023-05-16T14:41:09;4.93;;;4.53;;
359;SDS011;168;48.872;9.226;2023-05-16T14:43:37;4.17;;;3.87;;
359;SDS011;168;48.872;9.226;2023-05-16T14:46:04;4.50;;;4.20;;
359;SDS011;168;48.872;9.226;2023-05-16T14:48:35;4.27;;;3.87;;
359;SDS011;168;48.872;9.226;2023-05-16T14:51:04;4.30;;;3.90;;
359;SDS011;168;48.872;9.226;2023-05-16T14:53:37;3.83;;;3.53;;
359;SDS011;168;48.872;9.226;2023-05-16T14:56:07;4.10;;;3.80;;
359;SDS011;168;48.872;9.226;2023-05-16T14:58:34;3.70;;;3.40;;
359;SDS011;168;48.872;9.226;2023-05-16T15:01:01;3.47;;;3.17;;
359;SDS011;168;48.872;9.226;2023-05-16T15:03:30;4.10;;;3.67;;
359;SDS011;168;48.872;9.226;2023-05-16T15:05:58;3.23;;;3.03;;
359;SDS011;168;48.872;9.226;2023-05-16T15:08:26;3.50;;;3.17;;
359;SDS011;168;48.872;9.226;2023-05-16T15:10:53;2.87;;;2.67;;
359;SDS011;168;48.872;9.226;2023-05-16T15:13:22;5.77;;;3.27;;
359;SDS011;168;48.872;9.226;2023-05-16T15:15:49;3.70;;;3.20;;
359;SDS011;168;48.872;9.226;2023-05-16T15:18:17;4.80;;;3.20;;
359;SDS011;168;48.872;9.226;2023-05-16T15:20:45;3.63;;;3.30;;
359;SDS011;168;48.872;9.226;2023-05-16T15:23:20;3.20;;;2.73;;
359;SDS011;168;48.872;9.226;2023-05-16T15:25:48;3.63;;;3.33;;
359;SDS011;168;48.872;9.226;2023-05-16T15:28:16;3.10;;;2.90;;
359;SDS011;168;48.872;9.226;2023-05-16T15:30:46;3.23;;;2.93;;
359;SDS011;168;48.872;9.226;2023-05-16T15:33:13;3.30;;;3.03;;
359;SDS011;168;48.872;9.226;2023-05-16T15:35:40;4.03;;;3.47;;
359;SDS011;168;48.872;9.226;2023-05-16T15:38:08;2.90;;;2.70;;
359;SDS011;168;48.872;9.226;2023-05-16T15:40:35;3.17;;;2.90;;
359;SDS011;168;48.872;9.226;2023-05-16T15:43:02;4.50;;;2.97;;
359;SDS011;168;48.872;9.226;2023-05-16T15:45:30;2.53;;;2.33;;
359;SDS011;168;48.872;9.226;2023-05-16T15:47:59;3.27;;;2.83;;